Sunday, January 21, 2018, 8:34 PM GMT
Back to Local

CWIS, Charlevoix CS , Que.

Location: , , Canada Lat: 47.283
Local Time: 8:34 PM GMT (20:34 GMT) Lon: -70.633
Time Zone: GMT Elev: 2358 ft

Show me the last for .
Show Coded

Time T Td Feel RH Dir Speed Gust Alt SLP Vis Weather Sky Remarks
2018-01-21 20:00 11 5 1 78 310° 6 - - 30.07 0 None
2018-01-21 19:00 11 5 0 76 310° 7 - - 30.04 0 None
2018-01-21 18:00 13 5 2 72 320° 7 - - 30.04 0 None
2018-01-21 17:00 13 5 3 70 310° 6 - - 30.03 0 None
2018-01-21 14:00 6 3 - 86 300° 2 - - 30.02 0 None
2018-01-21 13:00 0 -2 - 90 130° 1 - - 30.00 0 None
2018-01-21 12:00 1 0 - 91 130° 1 - - 29.98 0 None
2018-01-21 11:00 5 3 - 92 - Calm - - 29.95 0 None
2018-01-21 10:00 6 5 0 95 190° 3 - - 29.91 0 None
2018-01-21 09:00 4 2 - 91 180° 2 - - 29.89 0 None
2018-01-21 08:00 4 4 - 101 140° 1 - - 29.87 0 None
2018-01-21 07:00 3 2 -4 92 170° 3 - - 29.85 0 None
2018-01-21 06:00 4 2 - 92 210° 2 - - 29.82 0 None
2018-01-21 05:00 5 3 - 92 160° 2 - - 29.80 0 None
2018-01-21 04:00 7 6 - 92 210° 1 - - 29.78 0 None
2018-01-21 03:00 10 8 - 92 260° 1 - - 29.76 0 None
2018-01-21 02:00 13 11 7 93 270° 3 - - 29.72 0 Peak wind: 19 mph (17 kts) from 310° at 05 min
2018-01-21 01:00 15 14 5 94 310° 7 - - 29.68 0 None
2018-01-21 00:00 18 17 10 96 290° 6 - - 29.63 0 Peak wind: 20 mph (18 kts) from 310° at 08 min
2018-01-20 23:00 20 20 11 100 300° 7 - - 29.57 0 Peak wind: 19 mph (17 kts) from 310° at 02 min
Pressure rising rapidly
2018-01-20 22:00 23 23 16 100 300° 6 - - 29.50 0 None
2018-01-20 21:00 26 - 12 0 300° 8 17 - 29.44 0 Pressure rising rapidly

Support USWX by starting your Amazon purchase here.